sensor_id;sensor_type;location;lat;lon;timestamp;temperature;humidity
14006;DHT22;7078;51.542;7.314;2023-03-23T00:01:47;11.10;99.90
14006;DHT22;7078;51.542;7.314;2023-03-23T00:04:15;11.10;99.90
14006;DHT22;7078;51.542;7.314;2023-03-23T00:06:41;11.10;99.90
14006;DHT22;7078;51.542;7.314;2023-03-23T00:09:09;11.10;99.90
14006;DHT22;7078;51.542;7.314;2023-03-23T00:11:35;11.10;99.90
14006;DHT22;7078;51.542;7.314;2023-03-23T00:14:01;11.10;99.90
14006;DHT22;7078;51.542;7.314;2023-03-23T00:16:30;11.10;99.90
14006;DHT22;7078;51.542;7.314;2023-03-23T00:19:08;11.20;99.90
14006;DHT22;7078;51.542;7.314;2023-03-23T00:21:36;11.10;99.90
14006;DHT22;7078;51.542;7.314;2023-03-23T00:24:24;11.10;99.90
14006;DHT22;7078;51.542;7.314;2023-03-23T00:26:49;11.20;99.90
14006;DHT22;7078;51.542;7.314;2023-03-23T00:29:18;11.20;99.90
14006;DHT22;7078;51.542;7.314;2023-03-23T00:31:45;11.20;99.90
14006;DHT22;7078;51.542;7.314;2023-03-23T00:34:16;11.30;99.90
14006;DHT22;7078;51.542;7.314;2023-03-23T00:36:47;11.30;99.90
14006;DHT22;7078;51.542;7.314;2023-03-23T00:39:14;11.30;99.90
14006;DHT22;7078;51.542;7.314;2023-03-23T00:41:42;11.30;99.90
14006;DHT22;7078;51.542;7.314;2023-03-23T00:44:07;11.30;99.90
14006;DHT22;7078;51.542;7.314;2023-03-23T00:46:34;11.30;99.90
14006;DHT22;7078;51.542;7.314;2023-03-23T00:48:59;11.30;99.90
14006;DHT22;7078;51.542;7.314;2023-03-23T00:51:25;11.40;99.90
14006;DHT22;7078;51.542;7.314;2023-03-23T00:53:51;11.40;99.90
14006;DHT22;7078;51.542;7.314;2023-03-23T00:56:16;11.50;99.90
14006;DHT22;7078;51.542;7.314;2023-03-23T00:58:42;11.50;99.90
14006;DHT22;7078;51.542;7.314;2023-03-23T01:01:08;11.60;99.90
14006;DHT22;7078;51.542;7.314;2023-03-23T01:03:35;11.60;99.90
14006;DHT22;7078;51.542;7.314;2023-03-23T01:06:07;11.60;99.90
14006;DHT22;7078;51.542;7.314;2023-03-23T01:08:34;11.70;99.90
14006;DHT22;7078;51.542;7.314;2023-03-23T01:11:06;11.70;99.90
14006;DHT22;7078;51.542;7.314;2023-03-23T01:13:32;11.70;99.90
14006;DHT22;7078;51.542;7.314;2023-03-23T01:15:57;11.70;99.90
14006;DHT22;7078;51.542;7.314;2023-03-23T01:18:23;11.70;99.90
14006;DHT22;7078;51.542;7.314;2023-03-23T01:20:48;11.70;99.90
14006;DHT22;7078;51.542;7.314;2023-03-23T01:23:14;11.70;99.90
14006;DHT22;7078;51.542;7.314;2023-03-23T01:25:40;11.70;99.90
14006;DHT22;7078;51.542;7.314;2023-03-23T01:28:05;11.70;99.90
14006;DHT22;7078;51.542;7.314;2023-03-23T01:30:31;11.70;99.90
14006;DHT22;7078;51.542;7.314;2023-03-23T01:32:56;11.70;99.90
14006;DHT22;7078;51.542;7.314;2023-03-23T01:35:22;11.80;99.90
14006;DHT22;7078;51.542;7.314;2023-03-23T01:37:48;11.70;99.90
14006;DHT22;7078;51.542;7.314;2023-03-23T01:40:14;11.80;99.90
14006;DHT22;7078;51.542;7.314;2023-03-23T01:42:41;11.80;99.90
14006;DHT22;7078;51.542;7.314;2023-03-23T01:45:31;11.80;99.90
14006;DHT22;7078;51.542;7.314;2023-03-23T01:50:37;11.70;99.90
14006;DHT22;7078;51.542;7.314;2023-03-23T01:53:08;11.80;99.90
14006;DHT22;7078;51.542;7.314;2023-03-23T01:55:38;12.00;99.90
14006;DHT22;7078;51.542;7.314;2023-03-23T01:58:06;11.80;99.90
14006;DHT22;7078;51.542;7.314;2023-03-23T02:00:33;11.80;99.90
14006;DHT22;7078;51.542;7.314;2023-03-23T02:03:00;11.80;99.90
14006;DHT22;7078;51.542;7.314;2023-03-23T02:05:39;11.80;99.90
14006;DHT22;7078;51.542;7.314;2023-03-23T02:08:06;11.90;99.90
14006;DHT22;7078;51.542;7.314;2023-03-23T02:10:35;11.90;99.90
14006;DHT22;7078;51.542;7.314;2023-03-23T02:13:02;11.80;99.90
14006;DHT22;7078;51.542;7.314;2023-03-23T02:29:42;12.00;99.90
14006;DHT22;7078;51.542;7.314;2023-03-23T02:35:16;12.00;99.90
14006;DHT22;7078;51.542;7.314;2023-03-23T02:38:30;11.90;99.90
14006;DHT22;7078;51.542;7.314;2023-03-23T02:40:48;12.00;99.90
14006;DHT22;7078;51.542;7.314;2023-03-23T02:43:19;12.00;99.90
14006;DHT22;7078;51.542;7.314;2023-03-23T02:45:46;12.00;99.90
14006;DHT22;7078;51.542;7.314;2023-03-23T02:48:14;11.90;99.90
14006;DHT22;7078;51.542;7.314;2023-03-23T02:50:44;11.90;99.90
14006;DHT22;7078;51.542;7.314;2023-03-23T02:53:12;12.00;99.90
14006;DHT22;7078;51.542;7.314;2023-03-23T02:55:41;11.70;99.90
14006;DHT22;7078;51.542;7.314;2023-03-23T02:58:11;11.80;99.90
14006;DHT22;7078;51.542;7.314;2023-03-23T03:00:38;11.80;99.90
14006;DHT22;7078;51.542;7.314;2023-03-23T03:03:04;11.80;99.90
14006;DHT22;7078;51.542;7.314;2023-03-23T03:11:08;11.70;99.90
14006;DHT22;7078;51.542;7.314;2023-03-23T03:13:51;11.70;99.90
14006;DHT22;7078;51.542;7.314;2023-03-23T03:16:27;11.80;99.90
14006;DHT22;7078;51.542;7.314;2023-03-23T03:21:42;11.60;99.90
14006;DHT22;7078;51.542;7.314;2023-03-23T03:24:11;11.60;99.90
14006;DHT22;7078;51.542;7.314;2023-03-23T03:26:39;11.60;99.90
14006;DHT22;7078;51.542;7.314;2023-03-23T03:29:10;11.60;99.90
14006;DHT22;7078;51.542;7.314;2023-03-23T03:31:38;11.70;99.90
14006;DHT22;7078;51.542;7.314;2023-03-23T03:34:05;11.60;99.90
14006;DHT22;7078;51.542;7.314;2023-03-23T03:36:33;11.60;99.90
14006;DHT22;7078;51.542;7.314;2023-03-23T03:39:07;11.60;99.90
14006;DHT22;7078;51.542;7.314;2023-03-23T03:41:35;11.70;99.90
14006;DHT22;7078;51.542;7.314;2023-03-23T03:44:05;11.60;99.90
14006;DHT22;7078;51.542;7.314;2023-03-23T03:46:32;11.60;99.90
14006;DHT22;7078;51.542;7.314;2023-03-23T03:48:59;11.80;99.90
14006;DHT22;7078;51.542;7.314;2023-03-23T03:51:27;11.80;99.90
14006;DHT22;7078;51.542;7.314;2023-03-23T03:53:53;11.70;99.90
14006;DHT22;7078;51.542;7.314;2023-03-23T03:56:18;11.80;99.90
14006;DHT22;7078;51.542;7.314;2023-03-23T03:58:45;11.80;99.90
14006;DHT22;7078;51.542;7.314;2023-03-23T04:01:11;11.80;99.90
14006;DHT22;7078;51.542;7.314;2023-03-23T04:03:37;11.90;99.90
14006;DHT22;7078;51.542;7.314;2023-03-23T04:06:03;11.90;99.90
14006;DHT22;7078;51.542;7.314;2023-03-23T04:08:29;11.90;99.90
14006;DHT22;7078;51.542;7.314;2023-03-23T04:10:55;11.90;99.90
14006;DHT22;7078;51.542;7.314;2023-03-23T04:13:21;12.00;99.90
14006;DHT22;7078;51.542;7.314;2023-03-23T04:15:48;11.90;99.90
14006;DHT22;7078;51.542;7.314;2023-03-23T04:18:14;11.90;99.90
14006;DHT22;7078;51.542;7.314;2023-03-23T04:20:44;11.90;99.90
14006;DHT22;7078;51.542;7.314;2023-03-23T04:23:16;11.90;99.90
14006;DHT22;7078;51.542;7.314;2023-03-23T04:25:46;12.00;99.90
14006;DHT22;7078;51.542;7.314;2023-03-23T04:28:12;12.00;99.90
14006;DHT22;7078;51.542;7.314;2023-03-23T04:30:38;12.00;99.90
14006;DHT22;7078;51.542;7.314;2023-03-23T04:33:04;12.20;99.90
14006;DHT22;7078;51.542;7.314;2023-03-23T04:35:31;12.20;99.90
14006;DHT22;7078;51.542;7.314;2023-03-23T04:37:56;12.00;99.90
14006;DHT22;7078;51.542;7.314;2023-03-23T04:40:23;12.20;99.90
14006;DHT22;7078;51.542;7.314;2023-03-23T04:42:49;12.10;99.90
14006;DHT22;7078;51.542;7.314;2023-03-23T04:45:20;12.10;99.90
14006;DHT22;7078;51.542;7.314;2023-03-23T04:47:48;12.20;99.90
14006;DHT22;7078;51.542;7.314;2023-03-23T04:50:20;12.10;99.90
14006;DHT22;7078;51.542;7.314;2023-03-23T04:52:49;12.10;99.90
14006;DHT22;7078;51.542;7.314;2023-03-23T04:55:17;12.10;99.90
14006;DHT22;7078;51.542;7.314;2023-03-23T04:57:43;12.10;99.90
14006;DHT22;7078;51.542;7.314;2023-03-23T05:00:10;12.40;99.90
14006;DHT22;7078;51.542;7.314;2023-03-23T05:02:40;12.10;99.90
14006;DHT22;7078;51.542;7.314;2023-03-23T05:05:07;12.30;99.90
14006;DHT22;7078;51.542;7.314;2023-03-23T05:07:33;12.10;99.90
14006;DHT22;7078;51.542;7.314;2023-03-23T05:09:58;12.10;99.90
14006;DHT22;7078;51.542;7.314;2023-03-23T05:12:24;12.10;99.90
14006;DHT22;7078;51.542;7.314;2023-03-23T05:14:50;12.10;99.90
14006;DHT22;7078;51.542;7.314;2023-03-23T05:17:15;12.30;99.90
14006;DHT22;7078;51.542;7.314;2023-03-23T05:19:43;12.20;99.90
14006;DHT22;7078;51.542;7.314;2023-03-23T05:22:10;12.20;99.90
14006;DHT22;7078;51.542;7.314;2023-03-23T05:24:38;12.20;99.90
14006;DHT22;7078;51.542;7.314;2023-03-23T05:27:03;12.20;99.90
14006;DHT22;7078;51.542;7.314;2023-03-23T05:29:29;12.30;99.90
14006;DHT22;7078;51.542;7.314;2023-03-23T05:31:56;12.20;99.90
14006;DHT22;7078;51.542;7.314;2023-03-23T05:34:26;12.40;99.90
14006;DHT22;7078;51.542;7.314;2023-03-23T05:36:52;12.20;99.90
14006;DHT22;7078;51.542;7.314;2023-03-23T05:39:19;12.20;99.90
14006;DHT22;7078;51.542;7.314;2023-03-23T05:41:44;12.30;99.90
14006;DHT22;7078;51.542;7.314;2023-03-23T05:44:12;12.20;99.90
14006;DHT22;7078;51.542;7.314;2023-03-23T05:46:39;12.30;99.90
14006;DHT22;7078;51.542;7.314;2023-03-23T05:49:04;12.30;99.90
14006;DHT22;7078;51.542;7.314;2023-03-23T05:51:30;12.30;99.90
14006;DHT22;7078;51.542;7.314;2023-03-23T05:53:56;12.40;99.90
14006;DHT22;7078;51.542;7.314;2023-03-23T05:56:22;12.50;99.90
14006;DHT22;7078;51.542;7.314;2023-03-23T05:58:48;12.30;99.90
14006;DHT22;7078;51.542;7.314;2023-03-23T06:01:14;12.10;99.90
14006;DHT22;7078;51.542;7.314;2023-03-23T06:03:40;12.30;99.90
14006;DHT22;7078;51.542;7.314;2023-03-23T06:06:06;12.40;99.90
14006;DHT22;7078;51.542;7.314;2023-03-23T06:08:33;12.40;99.90
14006;DHT22;7078;51.542;7.314;2023-03-23T06:10:58;12.40;99.90
14006;DHT22;7078;51.542;7.314;2023-03-23T06:13:25;12.40;99.90
14006;DHT22;7078;51.542;7.314;2023-03-23T06:15:55;12.40;99.90
14006;DHT22;7078;51.542;7.314;2023-03-23T06:18:22;12.40;99.90
14006;DHT22;7078;51.542;7.314;2023-03-23T06:20:49;12.40;99.90
14006;DHT22;7078;51.542;7.314;2023-03-23T06:23:15;12.40;99.90
14006;DHT22;7078;51.542;7.314;2023-03-23T06:25:40;12.40;99.90
14006;DHT22;7078;51.542;7.314;2023-03-23T06:28:06;12.40;99.90
14006;DHT22;7078;51.542;7.314;2023-03-23T06:30:32;12.40;99.90
14006;DHT22;7078;51.542;7.314;2023-03-23T06:32:57;12.40;99.90
14006;DHT22;7078;51.542;7.314;2023-03-23T06:35:23;12.40;99.90
14006;DHT22;7078;51.542;7.314;2023-03-23T06:37:49;12.40;99.90
14006;DHT22;7078;51.542;7.314;2023-03-23T06:40:14;12.40;99.90
14006;DHT22;7078;51.542;7.314;2023-03-23T06:42:43;12.40;99.90
14006;DHT22;7078;51.542;7.314;2023-03-23T06:45:09;12.50;99.90
14006;DHT22;7078;51.542;7.314;2023-03-23T06:47:35;12.50;99.90
14006;DHT22;7078;51.542;7.314;2023-03-23T06:50:01;12.50;99.90
14006;DHT22;7078;51.542;7.314;2023-03-23T06:52:26;12.60;99.90
14006;DHT22;7078;51.542;7.314;2023-03-23T06:54:52;12.70;99.90
14006;DHT22;7078;51.542;7.314;2023-03-23T06:57:18;12.70;99.90
14006;DHT22;7078;51.542;7.314;2023-03-23T06:59:44;12.80;99.90
14006;DHT22;7078;51.542;7.314;2023-03-23T07:02:11;12.80;99.90
14006;DHT22;7078;51.542;7.314;2023-03-23T07:04:38;12.80;99.90
14006;DHT22;7078;51.542;7.314;2023-03-23T07:07:05;12.80;99.90
14006;DHT22;7078;51.542;7.314;2023-03-23T07:09:31;13.00;99.90
14006;DHT22;7078;51.542;7.314;2023-03-23T07:11:56;12.90;99.90
14006;DHT22;7078;51.542;7.314;2023-03-23T07:14:22;12.90;99.90
14006;DHT22;7078;51.542;7.314;2023-03-23T07:16:48;13.10;99.90
14006;DHT22;7078;51.542;7.314;2023-03-23T07:19:14;13.00;99.90
14006;DHT22;7078;51.542;7.314;2023-03-23T07:21:39;13.00;99.90
14006;DHT22;7078;51.542;7.314;2023-03-23T07:24:05;13.20;99.90
14006;DHT22;7078;51.542;7.314;2023-03-23T07:26:31;13.00;99.90
14006;DHT22;7078;51.542;7.314;2023-03-23T07:28:57;12.90;99.90
14006;DHT22;7078;51.542;7.314;2023-03-23T07:31:22;13.00;99.90
14006;DHT22;7078;51.542;7.314;2023-03-23T07:33:48;13.20;99.90
14006;DHT22;7078;51.542;7.314;2023-03-23T07:36:13;13.00;99.90
14006;DHT22;7078;51.542;7.314;2023-03-23T07:38:39;13.10;99.90
14006;DHT22;7078;51.542;7.314;2023-03-23T07:41:05;13.10;99.90
14006;DHT22;7078;51.542;7.314;2023-03-23T07:43:31;13.00;99.90
14006;DHT22;7078;51.542;7.314;2023-03-23T07:45:57;13.00;99.90
14006;DHT22;7078;51.542;7.314;2023-03-23T07:48:23;13.20;99.90
14006;DHT22;7078;51.542;7.314;2023-03-23T07:50:48;13.10;99.90
14006;DHT22;7078;51.542;7.314;2023-03-23T07:53:14;13.20;99.90
14006;DHT22;7078;51.542;7.314;2023-03-23T07:55:40;13.20;99.90
14006;DHT22;7078;51.542;7.314;2023-03-23T07:58:05;13.10;99.90
14006;DHT22;7078;51.542;7.314;2023-03-23T08:00:31;13.10;99.90
14006;DHT22;7078;51.542;7.314;2023-03-23T08:02:58;13.10;99.90
14006;DHT22;7078;51.542;7.314;2023-03-23T08:05:25;13.10;99.90
14006;DHT22;7078;51.542;7.314;2023-03-23T08:07:52;13.10;99.90
14006;DHT22;7078;51.542;7.314;2023-03-23T08:10:20;13.20;99.90
14006;DHT22;7078;51.542;7.314;2023-03-23T08:12:51;13.20;99.90
14006;DHT22;7078;51.542;7.314;2023-03-23T08:15:17;13.20;99.90
14006;DHT22;7078;51.542;7.314;2023-03-23T08:17:43;13.20;99.90
14006;DHT22;7078;51.542;7.314;2023-03-23T08:20:11;13.30;99.90
14006;DHT22;7078;51.542;7.314;2023-03-23T08:22:41;13.20;99.90
14006;DHT22;7078;51.542;7.314;2023-03-23T08:25:09;13.20;99.90
14006;DHT22;7078;51.542;7.314;2023-03-23T08:27:36;13.30;99.90
14006;DHT22;7078;51.542;7.314;2023-03-23T08:30:04;13.50;99.90
14006;DHT22;7078;51.542;7.314;2023-03-23T08:32:31;13.40;99.90
14006;DHT22;7078;51.542;7.314;2023-03-23T08:34:56;13.40;99.90
14006;DHT22;7078;51.542;7.314;2023-03-23T08:37:22;13.40;99.90
14006;DHT22;7078;51.542;7.314;2023-03-23T08:39:51;13.50;99.90
14006;DHT22;7078;51.542;7.314;2023-03-23T08:42:17;13.60;99.90
14006;DHT22;7078;51.542;7.314;2023-03-23T08:44:43;13.70;99.90
14006;DHT22;7078;51.542;7.314;2023-03-23T08:47:09;13.70;99.90
14006;DHT22;7078;51.542;7.314;2023-03-23T08:49:35;13.60;99.90
14006;DHT22;7078;51.542;7.314;2023-03-23T08:52:02;13.70;99.90
14006;DHT22;7078;51.542;7.314;2023-03-23T08:54:28;13.80;99.90
14006;DHT22;7078;51.542;7.314;2023-03-23T08:56:55;13.60;99.90
14006;DHT22;7078;51.542;7.314;2023-03-23T08:59:24;13.90;99.90
14006;DHT22;7078;51.542;7.314;2023-03-23T09:01:50;13.90;99.90
14006;DHT22;7078;51.542;7.314;2023-03-23T09:04:15;13.90;99.90
14006;DHT22;7078;51.542;7.314;2023-03-23T09:06:42;13.90;99.90
14006;DHT22;7078;51.542;7.314;2023-03-23T09:09:08;13.90;99.90
14006;DHT22;7078;51.542;7.314;2023-03-23T09:11:34;13.90;99.90
14006;DHT22;7078;51.542;7.314;2023-03-23T09:14:02;13.90;99.90
14006;DHT22;7078;51.542;7.314;2023-03-23T09:16:28;13.90;99.90
14006;DHT22;7078;51.542;7.314;2023-03-23T09:18:53;14.00;99.90
14006;DHT22;7078;51.542;7.314;2023-03-23T09:21:20;13.90;99.90
14006;DHT22;7078;51.542;7.314;2023-03-23T09:23:47;13.80;99.90
14006;DHT22;7078;51.542;7.314;2023-03-23T09:26:13;13.80;99.90
14006;DHT22;7078;51.542;7.314;2023-03-23T09:28:39;13.60;99.90
14006;DHT22;7078;51.542;7.314;2023-03-23T09:31:05;13.70;99.90
14006;DHT22;7078;51.542;7.314;2023-03-23T09:33:31;13.70;99.90
14006;DHT22;7078;51.542;7.314;2023-03-23T09:36:00;13.60;99.90
14006;DHT22;7078;51.542;7.314;2023-03-23T09:38:27;13.60;99.90
14006;DHT22;7078;51.542;7.314;2023-03-23T09:43:29;13.70;99.90
14006;DHT22;7078;51.542;7.314;2023-03-23T09:48:56;13.80;99.90
14006;DHT22;7078;51.542;7.314;2023-03-23T09:51:47;14.10;99.90
14006;DHT22;7078;51.542;7.314;2023-03-23T09:56:46;14.00;99.90
14006;DHT22;7078;51.542;7.314;2023-03-23T09:59:30;14.30;99.90
14006;DHT22;7078;51.542;7.314;2023-03-23T10:02:17;14.10;99.90
14006;DHT22;7078;51.542;7.314;2023-03-23T10:04:48;14.00;99.90
14006;DHT22;7078;51.542;7.314;2023-03-23T10:07:23;14.10;99.90
14006;DHT22;7078;51.542;7.314;2023-03-23T10:09:52;13.90;99.90
14006;DHT22;7078;51.542;7.314;2023-03-23T10:12:25;13.80;99.90
14006;DHT22;7078;51.542;7.314;2023-03-23T10:15:10;13.30;99.90
14006;DHT22;7078;51.542;7.314;2023-03-23T10:20:48;11.50;99.90
14006;DHT22;7078;51.542;7.314;2023-03-23T10:28:58;10.80;99.90
14006;DHT22;7078;51.542;7.314;2023-03-23T10:31:31;10.60;99.90
14006;DHT22;7078;51.542;7.314;2023-03-23T10:34:04;10.60;99.90
14006;DHT22;7078;51.542;7.314;2023-03-23T10:37:05;10.60;99.90
14006;DHT22;7078;51.542;7.314;2023-03-23T10:39:54;10.50;99.90
14006;DHT22;7078;51.542;7.314;2023-03-23T10:42:30;10.50;99.90
14006;DHT22;7078;51.542;7.314;2023-03-23T10:44:59;10.60;99.90
14006;DHT22;7078;51.542;7.314;2023-03-23T10:47:24;10.60;99.90
14006;DHT22;7078;51.542;7.314;2023-03-23T10:49:59;10.60;99.90
14006;DHT22;7078;51.542;7.314;2023-03-23T10:52:39;10.70;99.90
14006;DHT22;7078;51.542;7.314;2023-03-23T10:55:24;10.60;99.90
14006;DHT22;7078;51.542;7.314;2023-03-23T10:58:05;10.70;99.90
14006;DHT22;7078;51.542;7.314;2023-03-23T11:00:32;10.80;99.90
14006;DHT22;7078;51.542;7.314;2023-03-23T11:03:06;11.00;99.90
14006;DHT22;7078;51.542;7.314;2023-03-23T11:05:44;11.10;99.90
14006;DHT22;7078;51.542;7.314;2023-03-23T11:08:18;11.00;99.90
14006;DHT22;7078;51.542;7.314;2023-03-23T11:10:51;11.00;99.90
14006;DHT22;7078;51.542;7.314;2023-03-23T11:13:18;11.10;99.90
14006;DHT22;7078;51.542;7.314;2023-03-23T11:15:46;11.20;99.90
14006;DHT22;7078;51.542;7.314;2023-03-23T11:18:19;11.30;99.90
14006;DHT22;7078;51.542;7.314;2023-03-23T11:20:48;11.10;99.90
14006;DHT22;7078;51.542;7.314;2023-03-23T11:23:22;11.10;99.90
14006;DHT22;7078;51.542;7.314;2023-03-23T11:28:27;11.00;99.90
14006;DHT22;7078;51.542;7.314;2023-03-23T11:30:55;10.90;99.90
14006;DHT22;7078;51.542;7.314;2023-03-23T11:33:21;10.80;99.90
14006;DHT22;7078;51.542;7.314;2023-03-23T11:35:52;10.80;99.90
14006;DHT22;7078;51.542;7.314;2023-03-23T11:38:20;10.80;99.90
14006;DHT22;7078;51.542;7.314;2023-03-23T11:40:51;10.80;99.90
14006;DHT22;7078;51.542;7.314;2023-03-23T11:43:21;10.80;99.90
14006;DHT22;7078;51.542;7.314;2023-03-23T11:46:04;10.80;99.90
14006;DHT22;7078;51.542;7.314;2023-03-23T11:48:50;10.80;99.90
14006;DHT22;7078;51.542;7.314;2023-03-23T11:54:26;11.00;99.90
14006;DHT22;7078;51.542;7.314;2023-03-23T11:56:54;11.10;99.90
14006;DHT22;7078;51.542;7.314;2023-03-23T11:59:33;11.10;99.90
14006;DHT22;7078;51.542;7.314;2023-03-23T12:07:50;11.00;99.90
14006;DHT22;7078;51.542;7.314;2023-03-23T12:12:50;10.90;99.90
14006;DHT22;7078;51.542;7.314;2023-03-23T12:15:30;11.00;99.90
14006;DHT22;7078;51.542;7.314;2023-03-23T12:34:50;11.20;99.90
14006;DHT22;7078;51.542;7.314;2023-03-23T12:48:00;11.10;99.90
14006;DHT22;7078;51.542;7.314;2023-03-23T12:50:42;11.20;99.90
14006;DHT22;7078;51.542;7.314;2023-03-23T12:53:21;11.10;99.90
14006;DHT22;7078;51.542;7.314;2023-03-23T12:56:04;11.20;99.90
14006;DHT22;7078;51.542;7.314;2023-03-23T12:58:38;11.30;99.90
14006;DHT22;7078;51.542;7.314;2023-03-23T13:01:23;11.40;99.90
14006;DHT22;7078;51.542;7.314;2023-03-23T13:06:36;11.50;99.90
14006;DHT22;7078;51.542;7.314;2023-03-23T13:09:13;11.70;99.90
14006;DHT22;7078;51.542;7.314;2023-03-23T13:11:41;11.80;99.90
14006;DHT22;7078;51.542;7.314;2023-03-23T13:14:26;11.90;99.90
14006;DHT22;7078;51.542;7.314;2023-03-23T13:28:00;12.40;99.90
14006;DHT22;7078;51.542;7.314;2023-03-23T13:30:27;12.60;99.90
14006;DHT22;7078;51.542;7.314;2023-03-23T13:33:02;12.60;99.90
14006;DHT22;7078;51.542;7.314;2023-03-23T13:35:34;12.50;99.90
14006;DHT22;7078;51.542;7.314;2023-03-23T13:38:01;12.40;99.90
14006;DHT22;7078;51.542;7.314;2023-03-23T13:40:30;12.30;99.90
14006;DHT22;7078;51.542;7.314;2023-03-23T13:42:59;12.40;99.90
14006;DHT22;7078;51.542;7.314;2023-03-23T13:50:55;12.90;99.90
14006;DHT22;7078;51.542;7.314;2023-03-23T13:53:30;12.90;99.90
14006;DHT22;7078;51.542;7.314;2023-03-23T13:56:41;12.80;99.90
14006;DHT22;7078;51.542;7.314;2023-03-23T13:59:29;12.70;99.90
14006;DHT22;7078;51.542;7.314;2023-03-23T14:02:41;12.50;99.90
14006;DHT22;7078;51.542;7.314;2023-03-23T14:04:42;12.40;99.90
14006;DHT22;7078;51.542;7.314;2023-03-23T14:07:12;12.40;99.90
14006;DHT22;7078;51.542;7.314;2023-03-23T14:09:42;12.30;99.90
14006;DHT22;7078;51.542;7.314;2023-03-23T14:12:17;12.40;99.90
14006;DHT22;7078;51.542;7.314;2023-03-23T14:14:49;12.50;99.90
14006;DHT22;7078;51.542;7.314;2023-03-23T14:17:22;12.50;99.90
14006;DHT22;7078;51.542;7.314;2023-03-23T14:19:54;12.60;99.90
14006;DHT22;7078;51.542;7.314;2023-03-23T14:22:31;12.70;99.90
14006;DHT22;7078;51.542;7.314;2023-03-23T14:25:17;12.80;99.90
14006;DHT22;7078;51.542;7.314;2023-03-23T14:27:44;12.90;99.90
14006;DHT22;7078;51.542;7.314;2023-03-23T14:30:16;13.10;99.90
14006;DHT22;7078;51.542;7.314;2023-03-23T14:32:43;13.20;99.90
14006;DHT22;7078;51.542;7.314;2023-03-23T14:35:25;13.10;99.90
14006;DHT22;7078;51.542;7.314;2023-03-23T14:37:52;13.20;99.90
14006;DHT22;7078;51.542;7.314;2023-03-23T14:40:18;13.50;99.90
14006;DHT22;7078;51.542;7.314;2023-03-23T14:42:44;13.60;99.90
14006;DHT22;7078;51.542;7.314;2023-03-23T14:45:15;13.50;99.90
14006;DHT22;7078;51.542;7.314;2023-03-23T14:53:01;14.10;99.90
14006;DHT22;7078;51.542;7.314;2023-03-23T14:55:27;14.10;99.90
14006;DHT22;7078;51.542;7.314;2023-03-23T14:58:05;14.10;99.90
14006;DHT22;7078;51.542;7.314;2023-03-23T15:00:37;14.30;99.90
14006;DHT22;7078;51.542;7.314;2023-03-23T15:03:04;14.40;99.90
14006;DHT22;7078;51.542;7.314;2023-03-23T15:05:40;14.40;99.90
14006;DHT22;7078;51.542;7.314;2023-03-23T15:08:10;14.40;99.90
14006;DHT22;7078;51.542;7.314;2023-03-23T15:10:37;14.40;99.90
14006;DHT22;7078;51.542;7.314;2023-03-23T15:13:04;14.20;99.90
14006;DHT22;7078;51.542;7.314;2023-03-23T15:15:32;14.40;99.90
14006;DHT22;7078;51.542;7.314;2023-03-23T15:17:59;14.30;99.90
14006;DHT22;7078;51.542;7.314;2023-03-23T15:20:28;14.30;99.90
14006;DHT22;7078;51.542;7.314;2023-03-23T15:22:54;14.20;99.90
14006;DHT22;7078;51.542;7.314;2023-03-23T15:25:31;14.20;99.90
14006;DHT22;7078;51.542;7.314;2023-03-23T15:28:14;14.00;99.90
14006;DHT22;7078;51.542;7.314;2023-03-23T15:30:52;13.90;99.90
14006;DHT22;7078;51.542;7.314;2023-03-23T15:33:18;13.90;99.90
14006;DHT22;7078;51.542;7.314;2023-03-23T15:35:49;14.20;99.90
14006;DHT22;7078;51.542;7.314;2023-03-23T15:38:24;14.00;99.90
14006;DHT22;7078;51.542;7.314;2023-03-23T15:40:55;14.60;99.90
14006;DHT22;7078;51.542;7.314;2023-03-23T15:43:24;14.50;99.90
14006;DHT22;7078;51.542;7.314;2023-03-23T15:51:17;14.90;99.90
14006;DHT22;7078;51.542;7.314;2023-03-23T15:53:44;15.00;99.90
14006;DHT22;7078;51.542;7.314;2023-03-23T15:56:11;14.90;99.90
14006;DHT22;7078;51.542;7.314;2023-03-23T15:58:37;15.20;99.90
14006;DHT22;7078;51.542;7.314;2023-03-23T16:01:12;15.20;99.90
14006;DHT22;7078;51.542;7.314;2023-03-23T16:04:33;15.40;99.90
14006;DHT22;7078;51.542;7.314;2023-03-23T16:06:34;15.60;99.90
14006;DHT22;7078;51.542;7.314;2023-03-23T16:09:00;15.80;99.90
14006;DHT22;7078;51.542;7.314;2023-03-23T16:11:27;15.60;99.90
14006;DHT22;7078;51.542;7.314;2023-03-23T16:13:54;15.70;99.90
14006;DHT22;7078;51.542;7.314;2023-03-23T16:16:23;15.90;99.90
14006;DHT22;7078;51.542;7.314;2023-03-23T16:18:49;16.00;99.90
14006;DHT22;7078;51.542;7.314;2023-03-23T16:21:14;16.10;99.90
14006;DHT22;7078;51.542;7.314;2023-03-23T16:23:40;16.00;99.90
14006;DHT22;7078;51.542;7.314;2023-03-23T16:26:09;15.90;99.90
14006;DHT22;7078;51.542;7.314;2023-03-23T16:28:35;15.70;99.90
14006;DHT22;7078;51.542;7.314;2023-03-23T16:31:01;15.80;99.90
14006;DHT22;7078;51.542;7.314;2023-03-23T16:33:26;15.90;99.90
14006;DHT22;7078;51.542;7.314;2023-03-23T16:35:52;16.20;99.90
14006;DHT22;7078;51.542;7.314;2023-03-23T16:38:17;17.00;99.90
14006;DHT22;7078;51.542;7.314;2023-03-23T16:40:44;17.20;99.90
14006;DHT22;7078;51.542;7.314;2023-03-23T16:43:10;17.20;99.90
14006;DHT22;7078;51.542;7.314;2023-03-23T16:45:37;17.00;99.90
14006;DHT22;7078;51.542;7.314;2023-03-23T16:48:03;17.00;99.90
14006;DHT22;7078;51.542;7.314;2023-03-23T16:50:30;16.50;99.90
14006;DHT22;7078;51.542;7.314;2023-03-23T16:52:56;16.20;99.90
14006;DHT22;7078;51.542;7.314;2023-03-23T16:55:22;16.10;99.90
14006;DHT22;7078;51.542;7.314;2023-03-23T16:57:50;15.80;99.90
14006;DHT22;7078;51.542;7.314;2023-03-23T17:00:17;15.40;99.90
14006;DHT22;7078;51.542;7.314;2023-03-23T17:02:48;15.10;99.90
14006;DHT22;7078;51.542;7.314;2023-03-23T17:05:19;14.70;99.90
14006;DHT22;7078;51.542;7.314;2023-03-23T17:07:45;14.40;99.90
14006;DHT22;7078;51.542;7.314;2023-03-23T17:10:12;14.20;99.90
14006;DHT22;7078;51.542;7.314;2023-03-23T17:12:39;14.00;99.90
14006;DHT22;7078;51.542;7.314;2023-03-23T17:15:06;13.90;99.90
14006;DHT22;7078;51.542;7.314;2023-03-23T17:17:32;13.80;99.90
14006;DHT22;7078;51.542;7.314;2023-03-23T17:19:58;13.60;99.90
14006;DHT22;7078;51.542;7.314;2023-03-23T17:22:24;13.50;99.90
14006;DHT22;7078;51.542;7.314;2023-03-23T17:24:50;13.50;99.90
14006;DHT22;7078;51.542;7.314;2023-03-23T17:27:17;13.50;99.90
14006;DHT22;7078;51.542;7.314;2023-03-23T17:29:44;13.40;99.90
14006;DHT22;7078;51.542;7.314;2023-03-23T17:32:10;13.40;99.90
14006;DHT22;7078;51.542;7.314;2023-03-23T17:34:36;13.30;99.90
14006;DHT22;7078;51.542;7.314;2023-03-23T17:37:02;13.30;99.90
14006;DHT22;7078;51.542;7.314;2023-03-23T17:39:28;13.30;99.90
14006;DHT22;7078;51.542;7.314;2023-03-23T17:41:54;13.20;99.90
14006;DHT22;7078;51.542;7.314;2023-03-23T17:44:20;13.10;99.90
14006;DHT22;7078;51.542;7.314;2023-03-23T17:46:45;13.10;99.90
14006;DHT22;7078;51.542;7.314;2023-03-23T17:49:11;13.10;99.90
14006;DHT22;7078;51.542;7.314;2023-03-23T17:51:37;13.10;99.90
14006;DHT22;7078;51.542;7.314;2023-03-23T17:54:02;13.00;99.90